Turner Center, Maine
Current Conditions -  °F | °C
As of 5:35 AM on Saturday 01 Nov 2014 (Local Time) from KLEW Reporting Station
Overcast Overcast  
Wind Chill:   Ceiling: 2600
Heat Index:   Visibility: 10mi
Dew Point:   Wind: 12mph
Humidity: 70%   Direction: 20°NNE
Pressure: 29.96"   Gusts: NA
Location:  44.27°N, 70.22°W
Report Text: KLEW 010935Z AUTO 02010KT 10SM BKN026 OVC035 06/01 A2996 RMK AO1
Loading
Personal Weather Stations






























Interactive Weather Map
Tropical Storm Tracking
New forecast layout! Learn more

10-Day Weather Forecast

Advertisements
Track Severe Weather on mobile